sensor_id;sensor_type;location;lat;lon;timestamp;temperature;humidity
9658;DHT22;4867;48.112;11.622;2023-05-24T00:00:31;13.70;99.90
9658;DHT22;4867;48.112;11.622;2023-05-24T00:02:59;13.70;99.90
9658;DHT22;4867;48.112;11.622;2023-05-24T00:05:26;13.70;99.90
9658;DHT22;4867;48.112;11.622;2023-05-24T00:07:57;13.70;99.90
9658;DHT22;4867;48.112;11.622;2023-05-24T00:10:25;13.80;99.90
9658;DHT22;4867;48.112;11.622;2023-05-24T00:12:53;13.80;99.90
9658;DHT22;4867;48.112;11.622;2023-05-24T00:15:21;13.80;99.90
9658;DHT22;4867;48.112;11.622;2023-05-24T00:17:48;13.80;99.90
9658;DHT22;4867;48.112;11.622;2023-05-24T00:20:15;13.80;99.90
9658;DHT22;4867;48.112;11.622;2023-05-24T00:22:43;13.70;99.90
9658;DHT22;4867;48.112;11.622;2023-05-24T00:25:10;13.70;99.90
9658;DHT22;4867;48.112;11.622;2023-05-24T00:27:38;13.60;99.90
9658;DHT22;4867;48.112;11.622;2023-05-24T00:30:05;13.60;99.90
9658;DHT22;4867;48.112;11.622;2023-05-24T00:32:33;13.50;99.90
9658;DHT22;4867;48.112;11.622;2023-05-24T00:35:00;13.40;99.90
9658;DHT22;4867;48.112;11.622;2023-05-24T00:37:28;13.40;99.90
9658;DHT22;4867;48.112;11.622;2023-05-24T00:39:55;13.40;99.90
9658;DHT22;4867;48.112;11.622;2023-05-24T00:42:23;13.40;99.90
9658;DHT22;4867;48.112;11.622;2023-05-24T00:44:50;13.40;99.90
9658;DHT22;4867;48.112;11.622;2023-05-24T00:47:18;13.50;99.90
9658;DHT22;4867;48.112;11.622;2023-05-24T00:49:45;13.40;99.90
9658;DHT22;4867;48.112;11.622;2023-05-24T00:52:13;13.40;99.90
9658;DHT22;4867;48.112;11.622;2023-05-24T00:54:40;13.40;99.90
9658;DHT22;4867;48.112;11.622;2023-05-24T00:57:08;13.30;99.90
9658;DHT22;4867;48.112;11.622;2023-05-24T00:59:35;13.30;99.90
9658;DHT22;4867;48.112;11.622;2023-05-24T01:02:04;13.30;99.90
9658;DHT22;4867;48.112;11.622;2023-05-24T01:04:31;13.30;99.90
9658;DHT22;4867;48.112;11.622;2023-05-24T01:15:11;13.20;99.90
9658;DHT22;4867;48.112;11.622;2023-05-24T01:20:32;13.10;99.90
9658;DHT22;4867;48.112;11.622;2023-05-24T01:23:13;13.20;99.90
9658;DHT22;4867;48.112;11.622;2023-05-24T01:28:45;13.20;99.90
9658;DHT22;4867;48.112;11.622;2023-05-24T01:31:14;13.30;99.90
9658;DHT22;4867;48.112;11.622;2023-05-24T01:33:43;13.30;99.90
9658;DHT22;4867;48.112;11.622;2023-05-24T01:36:11;13.30;99.90
9658;DHT22;4867;48.112;11.622;2023-05-24T01:38:39;13.30;99.90
9658;DHT22;4867;48.112;11.622;2023-05-24T01:46:49;13.20;99.90
9658;DHT22;4867;48.112;11.622;2023-05-24T01:49:28;13.20;99.90
9658;DHT22;4867;48.112;11.622;2023-05-24T01:52:11;13.40;99.90
9658;DHT22;4867;48.112;11.622;2023-05-24T01:54:42;13.20;99.90
9658;DHT22;4867;48.112;11.622;2023-05-24T01:57:10;13.30;99.90
9658;DHT22;4867;48.112;11.622;2023-05-24T01:59:41;13.20;99.90
9658;DHT22;4867;48.112;11.622;2023-05-24T02:02:10;13.20;99.90
9658;DHT22;4867;48.112;11.622;2023-05-24T02:04:37;13.20;99.90
9658;DHT22;4867;48.112;11.622;2023-05-24T02:07:06;13.20;99.90
9658;DHT22;4867;48.112;11.622;2023-05-24T02:09:33;13.20;99.90
9658;DHT22;4867;48.112;11.622;2023-05-24T02:12:00;13.30;99.90
9658;DHT22;4867;48.112;11.622;2023-05-24T02:14:28;13.30;99.90
9658;DHT22;4867;48.112;11.622;2023-05-24T02:16:55;13.40;99.90
9658;DHT22;4867;48.112;11.622;2023-05-24T02:19:25;13.40;99.90
9658;DHT22;4867;48.112;11.622;2023-05-24T02:21:52;13.40;99.90
9658;DHT22;4867;48.112;11.622;2023-05-24T02:24:20;13.20;99.90
9658;DHT22;4867;48.112;11.622;2023-05-24T02:26:47;13.20;99.90
9658;DHT22;4867;48.112;11.622;2023-05-24T02:29:15;13.20;99.90
9658;DHT22;4867;48.112;11.622;2023-05-24T02:31:42;13.20;99.90
9658;DHT22;4867;48.112;11.622;2023-05-24T02:34:10;13.20;99.90
9658;DHT22;4867;48.112;11.622;2023-05-24T02:36:37;13.20;99.90
9658;DHT22;4867;48.112;11.622;2023-05-24T02:39:04;13.20;99.90
9658;DHT22;4867;48.112;11.622;2023-05-24T02:41:32;13.10;99.90
9658;DHT22;4867;48.112;11.622;2023-05-24T02:43:59;13.20;99.90
9658;DHT22;4867;48.112;11.622;2023-05-24T02:46:26;13.30;99.90
9658;DHT22;4867;48.112;11.622;2023-05-24T02:48:54;13.20;99.90
9658;DHT22;4867;48.112;11.622;2023-05-24T02:51:21;13.20;99.90
9658;DHT22;4867;48.112;11.622;2023-05-24T02:53:49;13.10;99.90
9658;DHT22;4867;48.112;11.622;2023-05-24T02:56:16;13.10;99.90
9658;DHT22;4867;48.112;11.622;2023-05-24T02:58:44;13.10;99.90
9658;DHT22;4867;48.112;11.622;2023-05-24T03:01:12;13.00;99.90
9658;DHT22;4867;48.112;11.622;2023-05-24T03:03:40;13.10;99.90
9658;DHT22;4867;48.112;11.622;2023-05-24T03:06:07;13.10;99.90
9658;DHT22;4867;48.112;11.622;2023-05-24T03:08:35;13.20;99.90
9658;DHT22;4867;48.112;11.622;2023-05-24T03:11:04;13.20;99.90
9658;DHT22;4867;48.112;11.622;2023-05-24T03:13:32;13.20;99.90
9658;DHT22;4867;48.112;11.622;2023-05-24T03:16:01;13.00;99.90
9658;DHT22;4867;48.112;11.622;2023-05-24T03:18:29;13.10;99.90
9658;DHT22;4867;48.112;11.622;2023-05-24T03:20:56;13.10;99.90
9658;DHT22;4867;48.112;11.622;2023-05-24T03:23:23;13.10;99.90
9658;DHT22;4867;48.112;11.622;2023-05-24T03:25:50;13.20;99.90
9658;DHT22;4867;48.112;11.622;2023-05-24T03:28:18;13.20;99.90
9658;DHT22;4867;48.112;11.622;2023-05-24T03:30:48;13.20;99.90
9658;DHT22;4867;48.112;11.622;2023-05-24T03:33:17;13.20;99.90
9658;DHT22;4867;48.112;11.622;2023-05-24T03:35:44;13.10;99.90
9658;DHT22;4867;48.112;11.622;2023-05-24T03:38:12;13.10;99.90
9658;DHT22;4867;48.112;11.622;2023-05-24T03:40:45;13.20;99.90
9658;DHT22;4867;48.112;11.622;2023-05-24T03:43:16;13.10;99.90
9658;DHT22;4867;48.112;11.622;2023-05-24T03:46:06;13.10;99.90
9658;DHT22;4867;48.112;11.622;2023-05-24T03:48:33;13.10;99.90
9658;DHT22;4867;48.112;11.622;2023-05-24T03:51:01;13.00;99.90
9658;DHT22;4867;48.112;11.622;2023-05-24T03:53:28;13.00;99.90
9658;DHT22;4867;48.112;11.622;2023-05-24T03:55:55;13.00;99.90
9658;DHT22;4867;48.112;11.622;2023-05-24T03:58:23;13.00;99.90
9658;DHT22;4867;48.112;11.622;2023-05-24T04:00:50;13.10;99.90
9658;DHT22;4867;48.112;11.622;2023-05-24T04:03:17;13.10;99.90
9658;DHT22;4867;48.112;11.622;2023-05-24T04:05:47;13.20;99.90
9658;DHT22;4867;48.112;11.622;2023-05-24T04:08:15;13.10;99.90
9658;DHT22;4867;48.112;11.622;2023-05-24T04:10:42;13.10;99.90
9658;DHT22;4867;48.112;11.622;2023-05-24T04:13:11;13.00;99.90
9658;DHT22;4867;48.112;11.622;2023-05-24T04:15:38;12.90;99.90
9658;DHT22;4867;48.112;11.622;2023-05-24T04:18:06;12.90;99.90
9658;DHT22;4867;48.112;11.622;2023-05-24T04:20:34;12.90;99.90
9658;DHT22;4867;48.112;11.622;2023-05-24T04:23:02;13.00;99.90
9658;DHT22;4867;48.112;11.622;2023-05-24T04:25:30;12.90;99.90
9658;DHT22;4867;48.112;11.622;2023-05-24T04:27:59;12.90;99.90
9658;DHT22;4867;48.112;11.622;2023-05-24T04:30:29;12.80;99.90
9658;DHT22;4867;48.112;11.622;2023-05-24T04:32:57;12.80;99.90
9658;DHT22;4867;48.112;11.622;2023-05-24T04:35:24;12.80;99.90
9658;DHT22;4867;48.112;11.622;2023-05-24T04:37:52;12.90;99.90
9658;DHT22;4867;48.112;11.622;2023-05-24T04:40:20;12.90;99.90
9658;DHT22;4867;48.112;11.622;2023-05-24T04:42:47;12.90;99.90
9658;DHT22;4867;48.112;11.622;2023-05-24T04:45:15;13.00;99.90
9658;DHT22;4867;48.112;11.622;2023-05-24T04:47:43;13.10;99.90
9658;DHT22;4867;48.112;11.622;2023-05-24T04:50:10;13.30;99.90
9658;DHT22;4867;48.112;11.622;2023-05-24T04:52:37;13.20;99.90
9658;DHT22;4867;48.112;11.622;2023-05-24T04:55:05;13.30;99.90
9658;DHT22;4867;48.112;11.622;2023-05-24T04:57:32;13.30;99.90
9658;DHT22;4867;48.112;11.622;2023-05-24T04:59:59;13.40;99.90
9658;DHT22;4867;48.112;11.622;2023-05-24T05:02:28;13.40;99.90
9658;DHT22;4867;48.112;11.622;2023-05-24T05:04:55;13.40;99.90
9658;DHT22;4867;48.112;11.622;2023-05-24T05:07:22;13.40;99.90
9658;DHT22;4867;48.112;11.622;2023-05-24T05:09:49;13.40;99.90
9658;DHT22;4867;48.112;11.622;2023-05-24T05:12:17;13.40;99.90
9658;DHT22;4867;48.112;11.622;2023-05-24T05:14:44;13.40;99.90
9658;DHT22;4867;48.112;11.622;2023-05-24T05:17:11;13.30;99.90
9658;DHT22;4867;48.112;11.622;2023-05-24T05:19:39;13.00;99.90
9658;DHT22;4867;48.112;11.622;2023-05-24T05:22:07;12.90;99.90
9658;DHT22;4867;48.112;11.622;2023-05-24T05:24:34;13.00;99.90
9658;DHT22;4867;48.112;11.622;2023-05-24T05:27:01;12.80;99.90
9658;DHT22;4867;48.112;11.622;2023-05-24T05:29:28;12.90;99.90
9658;DHT22;4867;48.112;11.622;2023-05-24T05:31:56;13.00;99.90
9658;DHT22;4867;48.112;11.622;2023-05-24T05:34:23;13.10;99.90
9658;DHT22;4867;48.112;11.622;2023-05-24T05:36:50;13.30;99.90
9658;DHT22;4867;48.112;11.622;2023-05-24T05:39:17;13.30;99.90
9658;DHT22;4867;48.112;11.622;2023-05-24T05:41:44;13.40;99.90
9658;DHT22;4867;48.112;11.622;2023-05-24T05:44:12;13.40;99.90
9658;DHT22;4867;48.112;11.622;2023-05-24T05:46:40;13.40;99.90
9658;DHT22;4867;48.112;11.622;2023-05-24T05:49:10;13.50;99.90
9658;DHT22;4867;48.112;11.622;2023-05-24T05:51:38;13.60;99.90
9658;DHT22;4867;48.112;11.622;2023-05-24T05:54:05;13.60;99.90
9658;DHT22;4867;48.112;11.622;2023-05-24T05:56:34;13.60;99.90
9658;DHT22;4867;48.112;11.622;2023-05-24T05:59:07;13.50;99.90
9658;DHT22;4867;48.112;11.622;2023-05-24T06:01:34;13.50;99.90
9658;DHT22;4867;48.112;11.622;2023-05-24T06:04:01;13.70;99.90
9658;DHT22;4867;48.112;11.622;2023-05-24T06:06:29;13.80;99.90
9658;DHT22;4867;48.112;11.622;2023-05-24T06:08:56;14.00;99.90
9658;DHT22;4867;48.112;11.622;2023-05-24T06:11:23;14.10;99.90
9658;DHT22;4867;48.112;11.622;2023-05-24T06:13:52;14.20;99.90
9658;DHT22;4867;48.112;11.622;2023-05-24T06:16:19;14.30;99.90
9658;DHT22;4867;48.112;11.622;2023-05-24T06:18:47;14.30;99.90
9658;DHT22;4867;48.112;11.622;2023-05-24T06:21:31;14.50;99.90
9658;DHT22;4867;48.112;11.622;2023-05-24T06:23:59;14.50;99.90
9658;DHT22;4867;48.112;11.622;2023-05-24T06:26:29;14.50;99.90
9658;DHT22;4867;48.112;11.622;2023-05-24T06:28:56;14.50;99.90
9658;DHT22;4867;48.112;11.622;2023-05-24T06:31:23;14.60;99.90
9658;DHT22;4867;48.112;11.622;2023-05-24T06:33:50;14.80;99.90
9658;DHT22;4867;48.112;11.622;2023-05-24T06:36:29;15.00;99.90
9658;DHT22;4867;48.112;11.622;2023-05-24T06:39:00;15.20;99.90
9658;DHT22;4867;48.112;11.622;2023-05-24T06:41:27;15.30;99.90
9658;DHT22;4867;48.112;11.622;2023-05-24T06:43:54;15.50;99.90
9658;DHT22;4867;48.112;11.622;2023-05-24T06:46:21;15.70;99.90
9658;DHT22;4867;48.112;11.622;2023-05-24T06:48:49;15.70;99.90
9658;DHT22;4867;48.112;11.622;2023-05-24T06:51:17;15.70;99.90
9658;DHT22;4867;48.112;11.622;2023-05-24T06:53:44;15.90;99.90
9658;DHT22;4867;48.112;11.622;2023-05-24T06:56:11;16.00;99.90
9658;DHT22;4867;48.112;11.622;2023-05-24T06:58:38;16.10;99.90
9658;DHT22;4867;48.112;11.622;2023-05-24T07:01:06;16.10;99.90
9658;DHT22;4867;48.112;11.622;2023-05-24T07:03:35;16.20;99.90
9658;DHT22;4867;48.112;11.622;2023-05-24T07:06:03;16.20;99.90
9658;DHT22;4867;48.112;11.622;2023-05-24T07:08:31;16.30;99.90
9658;DHT22;4867;48.112;11.622;2023-05-24T07:10:58;16.50;99.90
9658;DHT22;4867;48.112;11.622;2023-05-24T07:13:25;16.80;99.90
9658;DHT22;4867;48.112;11.622;2023-05-24T07:15:53;16.90;99.90
9658;DHT22;4867;48.112;11.622;2023-05-24T07:18:21;16.90;99.90
9658;DHT22;4867;48.112;11.622;2023-05-24T07:20:48;17.20;99.90
9658;DHT22;4867;48.112;11.622;2023-05-24T07:26:16;17.20;99.90
9658;DHT22;4867;48.112;11.622;2023-05-24T07:28:43;17.20;99.90
9658;DHT22;4867;48.112;11.622;2023-05-24T07:31:11;17.20;99.90
9658;DHT22;4867;48.112;11.622;2023-05-24T07:33:38;17.10;99.90
9658;DHT22;4867;48.112;11.622;2023-05-24T07:36:06;17.10;99.90
9658;DHT22;4867;48.112;11.622;2023-05-24T07:38:34;17.30;99.90
9658;DHT22;4867;48.112;11.622;2023-05-24T07:41:02;17.40;99.90
9658;DHT22;4867;48.112;11.622;2023-05-24T07:43:30;17.50;99.90
9658;DHT22;4867;48.112;11.622;2023-05-24T07:45:58;17.50;99.90
9658;DHT22;4867;48.112;11.622;2023-05-24T07:48:25;17.40;99.90
9658;DHT22;4867;48.112;11.622;2023-05-24T07:50:52;17.20;99.90
9658;DHT22;4867;48.112;11.622;2023-05-24T07:53:21;17.10;99.90
9658;DHT22;4867;48.112;11.622;2023-05-24T07:55:49;17.00;99.90
9658;DHT22;4867;48.112;11.622;2023-05-24T07:58:17;16.90;99.90
9658;DHT22;4867;48.112;11.622;2023-05-24T08:00:44;16.90;99.90
9658;DHT22;4867;48.112;11.622;2023-05-24T08:03:12;17.00;99.90
9658;DHT22;4867;48.112;11.622;2023-05-24T08:05:40;16.70;99.90
9658;DHT22;4867;48.112;11.622;2023-05-24T08:08:08;16.80;99.90
9658;DHT22;4867;48.112;11.622;2023-05-24T08:10:36;17.00;99.90
9658;DHT22;4867;48.112;11.622;2023-05-24T08:13:03;17.00;99.90
9658;DHT22;4867;48.112;11.622;2023-05-24T08:15:31;16.90;99.90
9658;DHT22;4867;48.112;11.622;2023-05-24T08:17:58;16.90;99.90
9658;DHT22;4867;48.112;11.622;2023-05-24T08:20:26;16.90;99.90
9658;DHT22;4867;48.112;11.622;2023-05-24T08:22:53;17.10;99.90
9658;DHT22;4867;48.112;11.622;2023-05-24T08:25:21;17.30;99.90
9658;DHT22;4867;48.112;11.622;2023-05-24T08:27:48;17.50;99.90
9658;DHT22;4867;48.112;11.622;2023-05-24T08:30:15;17.10;99.90
9658;DHT22;4867;48.112;11.622;2023-05-24T08:32:43;17.10;99.90
9658;DHT22;4867;48.112;11.622;2023-05-24T08:35:10;17.30;99.90
9658;DHT22;4867;48.112;11.622;2023-05-24T08:37:48;17.10;99.90
9658;DHT22;4867;48.112;11.622;2023-05-24T08:40:15;17.20;99.90
9658;DHT22;4867;48.112;11.622;2023-05-24T08:42:44;17.10;99.90
9658;DHT22;4867;48.112;11.622;2023-05-24T08:45:13;16.80;99.90
9658;DHT22;4867;48.112;11.622;2023-05-24T08:47:41;16.90;99.90
9658;DHT22;4867;48.112;11.622;2023-05-24T08:50:09;16.90;99.90
9658;DHT22;4867;48.112;11.622;2023-05-24T08:52:37;16.80;99.90
9658;DHT22;4867;48.112;11.622;2023-05-24T08:55:06;16.80;99.90
9658;DHT22;4867;48.112;11.622;2023-05-24T08:57:35;16.80;99.90
9658;DHT22;4867;48.112;11.622;2023-05-24T09:00:07;16.70;99.90
9658;DHT22;4867;48.112;11.622;2023-05-24T09:02:38;16.40;99.90
9658;DHT22;4867;48.112;11.622;2023-05-24T09:05:10;16.40;99.90
9658;DHT22;4867;48.112;11.622;2023-05-24T09:07:39;16.30;99.90
9658;DHT22;4867;48.112;11.622;2023-05-24T09:10:07;16.20;99.90
9658;DHT22;4867;48.112;11.622;2023-05-24T09:12:39;16.30;99.90
9658;DHT22;4867;48.112;11.622;2023-05-24T09:15:09;16.50;99.90
9658;DHT22;4867;48.112;11.622;2023-05-24T09:17:37;16.60;99.90
9658;DHT22;4867;48.112;11.622;2023-05-24T09:20:07;16.60;99.90
9658;DHT22;4867;48.112;11.622;2023-05-24T09:22:40;16.60;99.90
9658;DHT22;4867;48.112;11.622;2023-05-24T09:25:11;16.30;99.90
9658;DHT22;4867;48.112;11.622;2023-05-24T09:27:39;16.10;99.90
9658;DHT22;4867;48.112;11.622;2023-05-24T09:30:09;16.20;99.90
9658;DHT22;4867;48.112;11.622;2023-05-24T09:32:39;15.90;99.90
9658;DHT22;4867;48.112;11.622;2023-05-24T09:35:09;15.80;99.90
9658;DHT22;4867;48.112;11.622;2023-05-24T09:37:37;15.70;99.90
9658;DHT22;4867;48.112;11.622;2023-05-24T09:40:17;15.80;99.90
9658;DHT22;4867;48.112;11.622;2023-05-24T09:42:45;15.80;99.90
9658;DHT22;4867;48.112;11.622;2023-05-24T09:45:13;15.90;99.90
9658;DHT22;4867;48.112;11.622;2023-05-24T09:47:41;15.80;99.90
9658;DHT22;4867;48.112;11.622;2023-05-24T09:50:15;15.80;99.90
9658;DHT22;4867;48.112;11.622;2023-05-24T09:52:44;15.90;99.90
9658;DHT22;4867;48.112;11.622;2023-05-24T09:55:18;15.90;99.90
9658;DHT22;4867;48.112;11.622;2023-05-24T09:58:10;15.70;99.90
9658;DHT22;4867;48.112;11.622;2023-05-24T10:00:39;15.80;99.90
9658;DHT22;4867;48.112;11.622;2023-05-24T10:03:09;15.90;99.90
9658;DHT22;4867;48.112;11.622;2023-05-24T10:05:43;15.90;99.90
9658;DHT22;4867;48.112;11.622;2023-05-24T10:08:11;15.60;99.90
9658;DHT22;4867;48.112;11.622;2023-05-24T10:10:40;15.60;99.90
9658;DHT22;4867;48.112;11.622;2023-05-24T10:13:09;15.50;99.90
9658;DHT22;4867;48.112;11.622;2023-05-24T10:15:37;15.50;99.90
9658;DHT22;4867;48.112;11.622;2023-05-24T10:18:05;15.50;99.90
9658;DHT22;4867;48.112;11.622;2023-05-24T10:20:38;15.40;99.90
9658;DHT22;4867;48.112;11.622;2023-05-24T10:23:09;15.30;99.90
9658;DHT22;4867;48.112;11.622;2023-05-24T10:25:40;15.10;99.90
9658;DHT22;4867;48.112;11.622;2023-05-24T10:28:12;15.30;99.90
9658;DHT22;4867;48.112;11.622;2023-05-24T10:31:09;15.40;99.90
9658;DHT22;4867;48.112;11.622;2023-05-24T10:33:39;15.50;99.90
9658;DHT22;4867;48.112;11.622;2023-05-24T10:36:10;15.40;99.90
9658;DHT22;4867;48.112;11.622;2023-05-24T10:38:40;15.20;99.90
9658;DHT22;4867;48.112;11.622;2023-05-24T10:41:08;15.20;99.90
9658;DHT22;4867;48.112;11.622;2023-05-24T10:43:36;15.10;99.90
9658;DHT22;4867;48.112;11.622;2023-05-24T10:46:07;15.10;99.90
9658;DHT22;4867;48.112;11.622;2023-05-24T10:48:38;15.20;99.90
9658;DHT22;4867;48.112;11.622;2023-05-24T10:51:34;15.10;99.90
9658;DHT22;4867;48.112;11.622;2023-05-24T10:54:18;15.20;99.90
9658;DHT22;4867;48.112;11.622;2023-05-24T10:56:49;15.10;99.90
9658;DHT22;4867;48.112;11.622;2023-05-24T10:59:27;15.20;99.90
9658;DHT22;4867;48.112;11.622;2023-05-24T11:01:58;15.10;99.90
9658;DHT22;4867;48.112;11.622;2023-05-24T11:04:31;15.10;99.90
9658;DHT22;4867;48.112;11.622;2023-05-24T11:07:06;15.30;99.90
9658;DHT22;4867;48.112;11.622;2023-05-24T11:09:37;15.20;99.90
9658;DHT22;4867;48.112;11.622;2023-05-24T11:12:16;15.30;99.90
9658;DHT22;4867;48.112;11.622;2023-05-24T11:14:49;15.30;99.90
9658;DHT22;4867;48.112;11.622;2023-05-24T11:17:22;15.20;99.90
9658;DHT22;4867;48.112;11.622;2023-05-24T11:19:53;15.10;99.90
9658;DHT22;4867;48.112;11.622;2023-05-24T11:22:23;14.90;99.90
9658;DHT22;4867;48.112;11.622;2023-05-24T11:24:51;14.80;99.90
9658;DHT22;4867;48.112;11.622;2023-05-24T11:27:19;14.80;99.90
9658;DHT22;4867;48.112;11.622;2023-05-24T11:29:47;14.90;99.90
9658;DHT22;4867;48.112;11.622;2023-05-24T11:32:16;15.00;99.90
9658;DHT22;4867;48.112;11.622;2023-05-24T11:34:46;15.10;99.90
9658;DHT22;4867;48.112;11.622;2023-05-24T11:37:13;15.10;99.90
9658;DHT22;4867;48.112;11.622;2023-05-24T11:39:48;15.20;99.90
9658;DHT22;4867;48.112;11.622;2023-05-24T11:42:16;15.50;99.90
9658;DHT22;4867;48.112;11.622;2023-05-24T11:44:46;15.70;99.90
9658;DHT22;4867;48.112;11.622;2023-05-24T11:47:14;15.80;99.90
9658;DHT22;4867;48.112;11.622;2023-05-24T11:49:41;15.90;99.90
9658;DHT22;4867;48.112;11.622;2023-05-24T11:52:08;16.10;99.90
9658;DHT22;4867;48.112;11.622;2023-05-24T11:54:36;16.00;99.90
9658;DHT22;4867;48.112;11.622;2023-05-24T11:57:05;15.90;99.90
9658;DHT22;4867;48.112;11.622;2023-05-24T11:59:32;16.00;99.90
9658;DHT22;4867;48.112;11.622;2023-05-24T12:02:04;16.00;99.90
9658;DHT22;4867;48.112;11.622;2023-05-24T12:04:33;16.10;99.90
9658;DHT22;4867;48.112;11.622;2023-05-24T12:07:01;16.20;99.90
9658;DHT22;4867;48.112;11.622;2023-05-24T12:09:29;16.00;99.90
9658;DHT22;4867;48.112;11.622;2023-05-24T12:11:56;16.00;99.90
9658;DHT22;4867;48.112;11.622;2023-05-24T12:14:30;15.80;99.90
9658;DHT22;4867;48.112;11.622;2023-05-24T12:16:59;15.80;99.90
9658;DHT22;4867;48.112;11.622;2023-05-24T12:19:30;15.80;99.90
9658;DHT22;4867;48.112;11.622;2023-05-24T12:22:05;15.90;99.90
9658;DHT22;4867;48.112;11.622;2023-05-24T12:24:34;16.00;99.90
9658;DHT22;4867;48.112;11.622;2023-05-24T12:27:03;16.10;99.90
9658;DHT22;4867;48.112;11.622;2023-05-24T12:29:38;16.00;99.90
9658;DHT22;4867;48.112;11.622;2023-05-24T12:32:09;15.60;99.90
9658;DHT22;4867;48.112;11.622;2023-05-24T12:34:43;15.50;99.90
9658;DHT22;4867;48.112;11.622;2023-05-24T12:37:11;15.60;99.90
9658;DHT22;4867;48.112;11.622;2023-05-24T12:39:40;15.90;99.90
9658;DHT22;4867;48.112;11.622;2023-05-24T12:42:10;15.60;99.90
9658;DHT22;4867;48.112;11.622;2023-05-24T12:44:39;15.60;99.90
9658;DHT22;4867;48.112;11.622;2023-05-24T12:47:07;15.60;99.90
9658;DHT22;4867;48.112;11.622;2023-05-24T12:49:35;15.60;99.90
9658;DHT22;4867;48.112;11.622;2023-05-24T12:52:03;15.60;99.90
9658;DHT22;4867;48.112;11.622;2023-05-24T12:54:30;15.50;99.90
9658;DHT22;4867;48.112;11.622;2023-05-24T12:56:58;15.60;99.90
9658;DHT22;4867;48.112;11.622;2023-05-24T12:59:29;15.80;99.90
9658;DHT22;4867;48.112;11.622;2023-05-24T13:01:56;15.90;99.90
9658;DHT22;4867;48.112;11.622;2023-05-24T13:04:24;16.00;99.90
9658;DHT22;4867;48.112;11.622;2023-05-24T13:06:53;16.10;99.90
9658;DHT22;4867;48.112;11.622;2023-05-24T13:09:21;16.00;99.90
9658;DHT22;4867;48.112;11.622;2023-05-24T13:11:50;16.40;99.90
9658;DHT22;4867;48.112;11.622;2023-05-24T13:14:18;16.60;99.90
9658;DHT22;4867;48.112;11.622;2023-05-24T13:16:46;17.00;99.90
9658;DHT22;4867;48.112;11.622;2023-05-24T13:19:14;17.10;99.90
9658;DHT22;4867;48.112;11.622;2023-05-24T13:21:41;17.30;99.90
9658;DHT22;4867;48.112;11.622;2023-05-24T13:24:09;17.30;99.90
9658;DHT22;4867;48.112;11.622;2023-05-24T13:26:36;17.40;99.90
9658;DHT22;4867;48.112;11.622;2023-05-24T13:29:05;17.40;99.90
9658;DHT22;4867;48.112;11.622;2023-05-24T13:31:35;17.30;99.90
9658;DHT22;4867;48.112;11.622;2023-05-24T13:34:07;17.40;99.90
9658;DHT22;4867;48.112;11.622;2023-05-24T13:36:36;17.10;99.90
9658;DHT22;4867;48.112;11.622;2023-05-24T13:39:04;17.00;99.90
9658;DHT22;4867;48.112;11.622;2023-05-24T13:41:36;17.10;99.90
9658;DHT22;4867;48.112;11.622;2023-05-24T13:44:04;17.10;99.90
9658;DHT22;4867;48.112;11.622;2023-05-24T13:46:33;17.30;99.90
9658;DHT22;4867;48.112;11.622;2023-05-24T13:49:02;17.10;99.90
9658;DHT22;4867;48.112;11.622;2023-05-24T13:51:30;17.00;99.90
9658;DHT22;4867;48.112;11.622;2023-05-24T13:53:59;17.00;99.90
9658;DHT22;4867;48.112;11.622;2023-05-24T13:56:28;16.80;99.90
9658;DHT22;4867;48.112;11.622;2023-05-24T13:59:02;16.90;99.90
9658;DHT22;4867;48.112;11.622;2023-05-24T14:01:32;16.90;99.90
9658;DHT22;4867;48.112;11.622;2023-05-24T14:04:01;16.50;99.90
9658;DHT22;4867;48.112;11.622;2023-05-24T14:06:28;16.50;99.90
9658;DHT22;4867;48.112;11.622;2023-05-24T14:08:56;16.60;99.90
9658;DHT22;4867;48.112;11.622;2023-05-24T14:11:25;16.60;99.90
9658;DHT22;4867;48.112;11.622;2023-05-24T14:13:52;16.60;99.90
9658;DHT22;4867;48.112;11.622;2023-05-24T14:16:23;16.60;99.90
9658;DHT22;4867;48.112;11.622;2023-05-24T14:18:51;16.60;99.90
9658;DHT22;4867;48.112;11.622;2023-05-24T14:21:18;16.60;99.90
9658;DHT22;4867;48.112;11.622;2023-05-24T14:23:48;16.70;99.90
9658;DHT22;4867;48.112;11.622;2023-05-24T14:26:17;16.70;99.90
9658;DHT22;4867;48.112;11.622;2023-05-24T14:28:45;16.70;99.90
9658;DHT22;4867;48.112;11.622;2023-05-24T14:31:12;16.60;99.90
9658;DHT22;4867;48.112;11.622;2023-05-24T14:33:39;16.70;99.90
9658;DHT22;4867;48.112;11.622;2023-05-24T14:36:07;16.60;99.90
9658;DHT22;4867;48.112;11.622;2023-05-24T14:38:35;16.60;99.90
9658;DHT22;4867;48.112;11.622;2023-05-24T14:41:02;16.50;99.90
9658;DHT22;4867;48.112;11.622;2023-05-24T14:43:29;16.50;99.90
9658;DHT22;4867;48.112;11.622;2023-05-24T14:45:57;16.60;99.90
9658;DHT22;4867;48.112;11.622;2023-05-24T14:48:24;16.60;99.90
9658;DHT22;4867;48.112;11.622;2023-05-24T14:50:51;16.70;99.90
9658;DHT22;4867;48.112;11.622;2023-05-24T14:53:19;16.70;99.90
9658;DHT22;4867;48.112;11.622;2023-05-24T14:55:46;16.60;99.90
9658;DHT22;4867;48.112;11.622;2023-05-24T14:58:14;16.70;99.90
9658;DHT22;4867;48.112;11.622;2023-05-24T15:00:41;16.70;99.90
9658;DHT22;4867;48.112;11.622;2023-05-24T15:03:09;16.60;99.90
9658;DHT22;4867;48.112;11.622;2023-05-24T15:05:39;16.70;99.90
9658;DHT22;4867;48.112;11.622;2023-05-24T15:08:08;16.90;99.90
9658;DHT22;4867;48.112;11.622;2023-05-24T15:10:36;17.00;99.90
9658;DHT22;4867;48.112;11.622;2023-05-24T15:13:10;17.10;99.90
9658;DHT22;4867;48.112;11.622;2023-05-24T15:15:37;17.20;99.90
9658;DHT22;4867;48.112;11.622;2023-05-24T15:18:05;17.30;99.90
9658;DHT22;4867;48.112;11.622;2023-05-24T15:20:33;17.40;99.90
9658;DHT22;4867;48.112;11.622;2023-05-24T15:23:02;17.60;99.90
9658;DHT22;4867;48.112;11.622;2023-05-24T15:25:29;17.70;99.90
9658;DHT22;4867;48.112;11.622;2023-05-24T15:27:56;17.80;99.90
9658;DHT22;4867;48.112;11.622;2023-05-24T15:30:24;18.00;99.90
9658;DHT22;4867;48.112;11.622;2023-05-24T15:32:51;18.00;99.90
9658;DHT22;4867;48.112;11.622;2023-05-24T15:35:18;18.00;99.90
9658;DHT22;4867;48.112;11.622;2023-05-24T15:37:46;18.00;99.90
9658;DHT22;4867;48.112;11.622;2023-05-24T15:40:13;18.20;99.90
9658;DHT22;4867;48.112;11.622;2023-05-24T15:42:41;18.30;99.90
9658;DHT22;4867;48.112;11.622;2023-05-24T15:45:09;18.40;99.90
9658;DHT22;4867;48.112;11.622;2023-05-24T15:47:36;18.60;99.90
9658;DHT22;4867;48.112;11.622;2023-05-24T15:50:07;18.90;99.90
9658;DHT22;4867;48.112;11.622;2023-05-24T15:52:35;19.20;99.90
9658;DHT22;4867;48.112;11.622;2023-05-24T15:55:03;19.80;99.90
9658;DHT22;4867;48.112;11.622;2023-05-24T15:57:30;20.20;99.90
9658;DHT22;4867;48.112;11.622;2023-05-24T15:59:58;20.70;99.90
9658;DHT22;4867;48.112;11.622;2023-05-24T16:02:25;20.90;99.90
9658;DHT22;4867;48.112;11.622;2023-05-24T16:04:53;21.10;99.90
9658;DHT22;4867;48.112;11.622;2023-05-24T16:07:21;21.50;99.90
9658;DHT22;4867;48.112;11.622;2023-05-24T16:09:49;21.80;99.90
9658;DHT22;4867;48.112;11.622;2023-05-24T16:12:17;21.70;99.80
9658;DHT22;4867;48.112;11.622;2023-05-24T16:14:44;21.70;99.40
9658;DHT22;4867;48.112;11.622;2023-05-24T16:17:12;21.60;99.50